Time;durP1;ratioP1;P1;durP2;ratioP2;P2;SDS_P1;SDS_P2;PMS_P1;PMS_P2;Temp;Humidity;BMP_temperature;BMP_pressure;BME280_temperature;BME280_humidity;BME280_pressure;Samples;Min_cycle;Max_cycle;Signal;HPM_P1;HPM_P2
2023/06/07 00:01:29;;;;;;;0.98;0.88;;;;;;;16.35;71.00;99974.78;5095663;28;20376;-80
2023/06/07 00:03:56;;;;;;;1.35;1.25;;;;;;;16.55;71.59;100024.69;5097355;28;20450;-79
2023/06/07 00:06:21;;;;;;;3.80;1.88;;;;;;;16.63;71.54;100019.97;5092459;28;20615;-78
2023/06/07 00:08:47;;;;;;;0.47;0.47;;;;;;;16.61;70.98;100002.31;5095216;28;20031;-78
2023/06/07 00:11:12;;;;;;;1.40;0.95;;;;;;;16.52;71.38;100000.84;5096109;28;20035;-78
2023/06/07 00:13:38;;;;;;;1.58;0.93;;;;;;;16.67;71.18;100006.53;5099878;28;20102;-77
2023/06/07 00:16:04;;;;;;;1.67;1.20;;;;;;;16.38;71.71;100003.13;5098696;28;20036;-77
2023/06/07 00:18:30;;;;;;;1.55;1.15;;;;;;;16.50;71.74;100018.66;5091119;28;20067;-77
2023/06/07 00:20:57;;;;;;;2.10;1.38;;;;;;;16.41;71.94;100011.00;5097305;28;20047;-78
2023/06/07 00:23:28;;;;;;;2.97;2.75;;;;;;;16.44;71.88;100005.56;5097674;28;20032;-77
2023/06/07 00:25:53;;;;;;;1.35;1.23;;;;;;;16.32;72.09;99987.34;5099297;28;20053;-77
2023/06/07 00:28:19;;;;;;;2.67;1.42;;;;;;;16.21;71.91;99974.41;5101755;28;20031;-78
2023/06/07 00:30:44;;;;;;;1.63;1.42;;;;;;;16.48;72.04;100015.16;5098864;28;20043;-78
2023/06/07 00:33:10;;;;;;;2.53;1.63;;;;;;;16.53;72.02;100018.56;5090392;28;20028;-77
2023/06/07 00:35:36;;;;;;;1.40;1.02;;;;;;;16.26;72.05;99980.44;5089657;28;20024;-77
2023/06/07 00:38:05;;;;;;;0.82;0.70;;;;;;;16.29;72.40;99972.34;5101379;28;20051;-77
2023/06/07 00:40:30;;;;;;;2.10;1.48;;;;;;;16.40;72.60;99995.94;5109755;28;20165;-78
2023/06/07 00:42:56;;;;;;;1.25;0.80;;;;;;;16.51;72.55;100036.38;5107815;28;20028;-77
2023/06/07 00:45:21;;;;;;;1.08;0.98;;;;;;;16.30;73.23;100008.69;5109838;28;20464;-77
2023/06/07 00:47:47;;;;;;;1.40;1.13;;;;;;;16.31;72.64;99985.59;5109860;28;20469;-77
2023/06/07 00:50:12;;;;;;;2.42;2.03;;;;;;;16.10;73.65;99988.06;5091185;28;20460;-77
2023/06/07 00:52:40;;;;;;;1.58;1.13;;;;;;;16.22;73.49;99994.75;5108226;28;20100;-78
2023/06/07 00:55:06;;;;;;;4.35;2.53;;;;;;;16.38;73.33;100009.31;5110315;28;20051;-78
2023/06/07 00:57:33;;;;;;;1.98;1.27;;;;;;;16.59;72.63;100020.13;5109719;28;20523;-78
2023/06/07 01:00:00;;;;;;;1.27;1.17;;;;;;;16.47;73.39;100010.78;5109953;28;20130;-78
2023/06/07 01:02:29;;;;;;;1.45;1.30;;;;;;;16.45;73.30;100015.28;5090549;28;20157;-77
2023/06/07 01:04:55;;;;;;;1.20;1.10;;;;;;;16.59;73.33;100028.13;5109651;28;20110;-78
2023/06/07 01:07:24;;;;;;;1.33;1.05;;;;;;;16.52;73.48;100008.81;5102437;28;20492;-78
2023/06/07 01:09:53;;;;;;;2.10;1.20;;;;;;;16.47;73.88;100016.97;5089460;28;20528;-78
2023/06/07 01:12:19;;;;;;;1.50;1.08;;;;;;;16.23;73.82;99972.56;5105003;28;20028;-78
2023/06/07 01:14:48;;;;;;;1.45;1.20;;;;;;;16.37;74.38;99993.38;5109769;28;20027;-77
2023/06/07 01:17:17;;;;;;;2.85;1.67;;;;;;;16.38;74.86;99997.78;5109870;28;20024;-77
2023/06/07 01:19:45;;;;;;;2.13;1.70;;;;;;;16.48;74.93;100015.16;5109885;28;20024;-77
2023/06/07 01:22:14;;;;;;;2.05;1.52;;;;;;;16.31;75.60;99980.28;5108202;28;20039;-77
2023/06/07 01:24:42;;;;;;;1.42;1.10;;;;;;;16.45;75.61;99989.53;5108778;28;20051;-77
2023/06/07 01:27:10;;;;;;;1.95;0.88;;;;;;;16.51;76.14;100014.22;5103370;28;20090;-77
2023/06/07 01:29:36;;;;;;;2.72;2.08;;;;;;;16.40;77.11;100022.56;5109649;28;20480;-77
2023/06/07 01:32:07;;;;;;;1.30;1.10;;;;;;;16.45;77.59;100017.94;5090787;28;20044;-77
2023/06/07 01:34:34;;;;;;;2.38;1.70;;;;;;;16.47;77.85;100019.63;5089712;28;20077;-77
2023/06/07 01:37:01;;;;;;;1.73;1.42;;;;;;;16.52;77.79;100015.97;5092970;28;20028;-77
2023/06/07 01:39:28;;;;;;;1.48;0.98;;;;;;;16.51;77.82;100001.75;5109344;28;20047;-77
2023/06/07 01:41:55;;;;;;;2.88;1.63;;;;;;;16.48;78.69;100001.84;5061082;28;20475;-77
2023/06/07 01:44:21;;;;;;;2.45;2.22;;;;;;;16.67;79.09;100035.84;5089203;28;20032;-78
2023/06/07 01:46:47;;;;;;;3.05;1.25;;;;;;;16.49;79.53;99979.66;5089453;28;20039;-77
2023/06/07 01:49:15;;;;;;;7.65;3.75;;;;;;;16.62;79.65;99985.41;5089283;28;20024;-77
2023/06/07 01:51:40;;;;;;;8.00;2.40;;;;;;;16.67;80.40;99979.91;5090399;28;20039;-77
2023/06/07 01:54:06;;;;;;;2.28;1.42;;;;;;;16.67;82.18;100001.22;5089864;28;20040;-78
2023/06/07 01:57:04;;;;;;;2.60;2.17;;;;;;;16.80;83.26;99999.88;5093319;28;20028;-77
2023/06/07 01:59:45;;;;;;;4.68;2.97;;;;;;;16.60;84.10;99958.81;5092477;28;20024;-77
2023/06/07 02:02:27;;;;;;;1.88;1.65;;;;;;;16.88;84.80;100011.16;5093843;28;20024;-77
2023/06/07 02:05:18;;;;;;;3.42;2.13;;;;;;;16.95;84.35;99986.03;5092777;28;20024;-77
2023/06/07 02:07:53;;;;;;;3.13;1.98;;;;;;;16.99;84.83;99997.44;5101927;28;20028;-77
2023/06/07 02:10:24;;;;;;;6.00;2.33;;;;;;;16.85;85.14;99967.72;5099560;28;20489;-77
2023/06/07 02:12:53;;;;;;;4.78;3.28;;;;;;;17.26;84.56;100024.88;5094547;28;20118;-77
2023/06/07 02:15:22;;;;;;;3.10;2.28;;;;;;;17.19;84.24;99994.03;5113085;28;20058;-77
2023/06/07 02:17:57;;;;;;;4.47;2.90;;;;;;;17.26;83.57;99997.34;5094010;28;20445;-77
2023/06/07 02:20:27;;;;;;;2.65;2.45;;;;;;;17.29;84.16;100016.75;5094371;28;20474;-77
2023/06/07 02:22:52;;;;;;;3.65;2.58;;;;;;;17.15;84.66;99995.09;5113180;28;20115;-77
2023/06/07 02:25:18;;;;;;;2.25;2.00;;;;;;;17.28;84.23;100006.16;5112785;28;20557;-77
2023/06/07 02:27:44;;;;;;;5.57;2.45;;;;;;;17.09;85.01;99982.00;5094782;28;20460;-78
2023/06/07 02:30:10;;;;;;;5.28;3.38;;;;;;;17.28;84.94;100017.66;5091876;28;20409;-77
2023/06/07 02:32:36;;;;;;;2.97;2.28;;;;;;;17.26;85.62;100018.69;5093343;28;20028;-78
2023/06/07 02:35:02;;;;;;;3.92;2.42;;;;;;;17.22;85.31;100009.91;5098340;28;20520;-78
2023/06/07 02:37:28;;;;;;;12.98;5.30;;;;;;;17.24;84.93;100001.84;5104037;28;20115;-77
2023/06/07 02:39:53;;;;;;;5.35;3.55;;;;;;;17.42;84.56;100009.16;5093086;28;20078;-77
2023/06/07 02:42:19;;;;;;;5.82;3.03;;;;;;;17.42;85.38;100013.63;5092254;28;20060;-77
2023/06/07 02:44:44;;;;;;;10.38;3.88;;;;;;;17.44;85.73;100030.44;5091425;28;20028;-77
2023/06/07 02:47:10;;;;;;;7.13;4.22;;;;;;;17.52;85.26;100013.22;5092366;28;20048;-77
2023/06/07 02:49:35;;;;;;;10.13;5.50;;;;;;;17.45;85.02;100016.19;5091906;28;20030;-77
2023/06/07 02:52:01;;;;;;;8.93;4.50;;;;;;;17.12;86.92;100001.38;5092924;28;20115;-77
2023/06/07 02:54:26;;;;;;;6.53;3.40;;;;;;;17.06;86.76;99998.97;5091734;28;20059;-77
2023/06/07 02:56:52;;;;;;;7.18;3.55;;;;;;;17.12;86.53;99984.53;5092108;28;20421;-77
2023/06/07 02:59:18;;;;;;;6.72;4.28;;;;;;;17.04;86.27;99971.50;5092035;28;20130;-77
2023/06/07 03:01:44;;;;;;;12.30;6.13;;;;;;;17.37;85.94;100005.81;5092769;28;20104;-78
2023/06/07 03:04:10;;;;;;;8.18;3.70;;;;;;;17.48;85.12;100008.06;5091663;28;20051;-77
2023/06/07 03:06:40;;;;;;;7.55;3.88;;;;;;;17.40;85.25;100003.00;5090891;28;20055;-77
2023/06/07 03:09:06;;;;;;;6.47;4.10;;;;;;;17.17;86.85;100006.56;5097278;28;20085;-76
2023/06/07 03:11:32;;;;;;;8.73;4.22;;;;;;;17.14;87.16;100006.66;5093594;28;20039;-77
2023/06/07 03:13:57;;;;;;;4.30;2.83;;;;;;;16.88;87.87;99976.50;5072842;28;20180;-78
2023/06/07 03:16:23;;;;;;;6.00;4.07;;;;;;;17.02;87.64;99999.13;5091500;28;20028;-79
2023/06/07 03:18:48;;;;;;;5.57;4.05;;;;;;;16.76;88.42;99974.25;5099133;28;20020;-78
2023/06/07 03:21:15;;;;;;;5.85;4.10;;;;;;;17.05;87.71;100005.19;5091090;28;20035;-78
2023/06/07 03:23:41;;;;;;;10.30;4.35;;;;;;;16.85;88.51;99994.38;5092378;28;20028;-78
2023/06/07 03:26:07;;;;;;;6.93;3.08;;;;;;;16.98;87.66;99988.56;5091103;28;20405;-79
2023/06/07 03:28:32;;;;;;;5.22;4.65;;;;;;;16.99;87.01;99982.34;5090732;28;20032;-79
2023/06/07 03:30:58;;;;;;;12.55;4.90;;;;;;;16.92;87.14;99980.81;5092611;27;20028;-78
2023/06/07 03:33:23;;;;;;;7.50;4.75;;;;;;;16.86;87.78;99972.16;5094452;28;20036;-80
2023/06/07 03:35:49;;;;;;;8.48;3.55;;;;;;;17.12;86.91;99985.41;5110368;28;20108;-79
2023/06/07 03:38:15;;;;;;;7.00;4.57;;;;;;;17.16;86.09;100004.81;5096352;28;20054;-79
2023/06/07 03:40:40;;;;;;;6.93;4.00;;;;;;;17.24;86.66;100007.19;5110734;28;20027;-79
2023/06/07 03:43:06;;;;;;;6.20;4.20;;;;;;;17.07;86.42;99984.72;5110294;28;20532;-79
2023/06/07 03:45:31;;;;;;;6.47;4.78;;;;;;;17.10;86.33;99987.25;5110503;28;20020;-79
2023/06/07 03:47:57;;;;;;;7.78;3.80;;;;;;;17.02;86.72;99969.81;5100522;28;20030;-79
2023/06/07 03:50:22;;;;;;;8.82;5.97;;;;;;;17.31;87.30;100000.69;5090240;28;20036;-79
2023/06/07 03:52:48;;;;;;;7.97;6.00;;;;;;;17.45;86.21;99994.84;5090046;28;20508;-79
2023/06/07 03:55:13;;;;;;;13.15;6.13;;;;;;;17.36;85.30;99982.72;5090065;28;20024;-79
2023/06/07 03:57:39;;;;;;;9.13;5.65;;;;;;;17.40;84.91;99980.81;5090517;28;20367;-79
2023/06/07 04:00:06;;;;;;;10.90;6.65;;;;;;;17.43;84.90;99994.03;5091402;28;20118;-79
2023/06/07 04:02:31;;;;;;;7.85;5.30;;;;;;;17.44;84.94;99995.75;5090622;28;20024;-78
2023/06/07 04:04:57;;;;;;;7.50;4.00;;;;;;;17.39;85.96;100005.75;5097176;27;20420;-79
2023/06/07 04:07:22;;;;;;;12.55;5.78;;;;;;;17.43;85.57;100002.03;5093540;27;20085;-79
2023/06/07 04:09:48;;;;;;;6.85;4.38;;;;;;;17.47;85.46;100012.53;5072872;28;20122;-79
2023/06/07 04:12:13;;;;;;;8.95;5.35;;;;;;;17.45;85.13;99981.50;5107140;27;20038;-78
2023/06/07 04:14:39;;;;;;;7.13;5.18;;;;;;;17.75;84.44;99999.88;5110475;28;20034;-80
2023/06/07 04:17:05;;;;;;;9.60;5.40;;;;;;;17.97;83.08;100016.81;5105668;28;20056;-78
2023/06/07 04:19:30;;;;;;;7.65;4.70;;;;;;;17.59;83.50;99992.50;5107607;27;20023;-79
2023/06/07 04:21:56;;;;;;;9.20;4.13;;;;;;;17.67;82.40;99981.53;5099766;27;20028;-81
2023/06/07 04:24:21;;;;;;;9.27;5.60;;;;;;;18.03;81.74;100013.03;5090248;28;20358;-78
2023/06/07 04:26:48;;;;;;;14.90;4.72;;;;;;;18.05;81.74;99990.69;5097167;28;20221;-78
2023/06/07 04:29:14;;;;;;;10.13;5.47;;;;;;;18.19;80.42;99995.44;5092785;28;20123;-78
2023/06/07 04:31:41;;;;;;;5.80;3.70;;;;;;;18.36;79.81;100016.09;5094926;27;20081;-78
2023/06/07 04:34:09;;;;;;;9.60;6.03;;;;;;;18.36;79.13;100026.78;5130991;27;20027;-78
2023/06/07 04:36:37;;;;;;;13.35;5.72;;;;;;;18.30;78.44;100008.34;5114596;27;20511;-77
2023/06/07 04:39:05;;;;;;;7.78;4.13;;;;;;;18.10;78.78;99995.81;5078731;28;20455;-78
2023/06/07 04:41:32;;;;;;;6.63;3.72;;;;;;;17.97;80.18;100010.63;5078079;28;20031;-77
2023/06/07 04:44:03;;;;;;;7.38;4.75;;;;;;;18.21;79.05;100022.97;5074720;28;20035;-77
2023/06/07 04:46:30;;;;;;;7.40;4.22;;;;;;;18.33;77.88;100028.72;5069695;28;20146;-77
2023/06/07 04:48:56;;;;;;;7.38;4.22;;;;;;;18.52;76.60;100034.16;5073775;28;20060;-77
2023/06/07 04:51:22;;;;;;;10.25;5.22;;;;;;;18.68;76.40;100024.56;5075641;28;20063;-77
2023/06/07 04:53:49;;;;;;;4.45;3.17;;;;;;;18.68;75.66;100007.66;5072947;28;20064;-77
2023/06/07 04:56:14;;;;;;;7.43;3.55;;;;;;;18.78;75.62;100028.56;5078070;28;20059;-78
2023/06/07 04:58:42;;;;;;;5.45;3.47;;;;;;;18.66;74.91;99996.16;5074018;28;20060;-78
2023/06/07 05:01:11;;;;;;;5.97;3.42;;;;;;;18.62;75.98;100027.50;5072804;28;20033;-77
2023/06/07 05:03:42;;;;;;;6.80;3.83;;;;;;;18.72;76.28;100034.19;5072484;28;20054;-77
2023/06/07 05:06:07;;;;;;;4.35;2.95;;;;;;;18.54;76.09;100018.94;5070747;28;20474;-79
2023/06/07 05:08:33;;;;;;;4.25;2.63;;;;;;;18.66;76.15;100010.41;5072114;28;20033;-77
2023/06/07 05:10:58;;;;;;;5.97;2.72;;;;;;;18.77;75.24;100033.97;5072840;28;20032;-79
2023/06/07 05:13:23;;;;;;;6.35;4.68;;;;;;;18.79;73.81;100011.59;5072873;28;20032;-77
2023/06/07 05:15:52;;;;;;;6.95;4.38;;;;;;;18.98;72.97;100004.59;5072960;28;20475;-77
2023/06/07 05:18:19;;;;;;;3.55;2.20;;;;;;;19.25;71.19;100031.91;5071527;28;20093;-80
2023/06/07 05:20:48;;;;;;;5.78;3.13;;;;;;;19.07;71.86;100009.53;5068728;28;20083;-79
2023/06/07 05:23:17;;;;;;;5.05;3.90;;;;;;;19.06;72.13;100024.72;5072250;28;20028;-78
2023/06/07 05:25:46;;;;;;;10.48;3.60;;;;;;;19.17;72.79;100034.91;5072469;28;20056;-77
2023/06/07 05:28:12;;;;;;;7.35;2.88;;;;;;;18.93;73.37;100016.34;5080224;28;20463;-77
2023/06/07 05:30:38;;;;;;;4.10;2.17;;;;;;;18.71;73.52;100019.06;5087693;28;20040;-77
2023/06/07 05:33:05;;;;;;;5.90;2.55;;;;;;;19.01;73.88;100041.88;5078190;28;20032;-76
2023/06/07 05:35:30;;;;;;;5.88;3.47;;;;;;;19.15;73.96;100044.78;5077659;28;20036;-77
2023/06/07 05:37:56;;;;;;;3.25;2.58;;;;;;;19.43;73.14;100022.13;5088548;28;20046;-77
2023/06/07 05:40:21;;;;;;;4.45;3.25;;;;;;;19.66;71.38;100016.59;5097706;28;20108;-77
2023/06/07 05:42:49;;;;;;;10.68;5.35;;;;;;;19.78;71.42;100039.25;5098692;28;20050;-77
2023/06/07 05:45:16;;;;;;;4.13;2.30;;;;;;;19.47;72.17;100029.09;5098461;28;20020;-78
2023/06/07 05:47:43;;;;;;;4.22;2.55;;;;;;;19.55;72.28;100032.28;5099395;28;20032;-77
2023/06/07 05:50:10;;;;;;;10.35;3.45;;;;;;;19.54;71.45;100040.38;5102543;27;20114;-79
2023/06/07 05:52:37;;;;;;;5.95;3.53;;;;;;;19.46;71.08;100030.91;5099591;28;20027;-77
2023/06/07 05:55:03;;;;;;;6.72;3.40;;;;;;;19.60;70.92;100005.28;5100467;28;20024;-78
2023/06/07 05:57:29;;;;;;;6.93;4.10;;;;;;;19.72;70.16;99996.69;5097417;28;20044;-78
2023/06/07 05:59:54;;;;;;;6.40;2.85;;;;;;;20.22;70.28;100030.00;5095994;28;20060;-78
2023/06/07 06:02:20;;;;;;;5.75;2.75;;;;;;;20.07;69.41;100036.97;5095622;28;20519;-78
2023/06/07 06:04:47;;;;;;;7.25;2.83;;;;;;;19.76;71.08;100030.41;5100568;27;20048;-77
2023/06/07 06:07:13;;;;;;;3.63;2.45;;;;;;;19.84;70.42;100049.66;5104084;28;20625;-78
2023/06/07 06:09:41;;;;;;;3.45;1.88;;;;;;;19.70;69.79;100019.13;5095741;28;20438;-81
2023/06/07 06:12:07;;;;;;;4.45;2.63;;;;;;;19.63;70.68;100015.84;5101605;28;20115;-80
2023/06/07 06:14:32;;;;;;;5.78;3.58;;;;;;;19.85;69.13;100021.97;5100768;28;20089;-81
2023/06/07 06:16:58;;;;;;;8.73;3.08;;;;;;;19.76;69.66;100025.03;5107757;28;20048;-81
2023/06/07 06:19:25;;;;;;;11.38;4.03;;;;;;;19.56;69.71;100019.78;5095187;28;20516;-80
2023/06/07 06:21:50;;;;;;;3.92;2.70;;;;;;;19.38;69.59;100011.66;5111477;28;20023;-83
2023/06/07 06:24:16;;;;;;;4.32;2.83;;;;;;;19.57;69.49;100021.50;5097531;28;20084;-82
2023/06/07 06:26:41;;;;;;;8.82;3.03;;;;;;;19.39;69.47;99993.81;5092809;28;20028;-82
2023/06/07 06:29:07;;;;;;;5.88;3.63;;;;;;;19.70;69.38;100033.38;5097884;28;20090;-82
2023/06/07 06:31:32;;;;;;;3.42;2.50;;;;;;;20.08;68.34;100003.91;5080020;28;20067;-82
2023/06/07 06:33:59;;;;;;;3.78;2.40;;;;;;;20.77;65.97;100031.72;5100750;28;20024;-82
2023/06/07 06:36:24;;;;;;;5.43;2.60;;;;;;;20.97;63.91;100021.75;5095242;28;20145;-83
2023/06/07 06:38:51;;;;;;;5.13;2.95;;;;;;;21.40;63.17;100022.13;5101441;28;20501;-83
2023/06/07 06:41:16;;;;;;;7.10;4.05;;;;;;;21.85;62.31;100025.91;5099405;28;20044;-85
2023/06/07 06:43:42;;;;;;;4.95;2.50;;;;;;;21.60;60.72;100019.25;5099434;28;20110;-82
2023/06/07 06:46:07;;;;;;;2.63;2.38;;;;;;;21.77;60.82;100017.44;5092645;28;20036;-82
2023/06/07 06:48:35;;;;;;;5.03;2.60;;;;;;;22.15;60.37;100022.41;5099261;28;20623;-82
2023/06/07 06:51:01;;;;;;;6.03;3.40;;;;;;;22.03;59.68;99977.47;5104085;27;20114;-84
2023/06/07 06:53:26;;;;;;;4.55;2.30;;;;;;;22.31;59.66;100025.13;5103395;28;20527;-85
2023/06/07 06:55:52;;;;;;;4.32;2.72;;;;;;;22.30;59.12;100005.44;5105612;28;20032;-84
2023/06/07 06:58:18;;;;;;;3.47;2.30;;;;;;;21.90;59.17;99996.13;5100233;28;20119;-86
2023/06/07 07:00:43;;;;;;;5.82;3.13;;;;;;;22.39;58.90;100025.53;5095309;28;20023;-82
2023/06/07 07:03:09;;;;;;;4.50;3.08;;;;;;;22.63;58.39;100007.09;5082893;28;20047;-83
2023/06/07 07:05:35;;;;;;;5.20;3.00;;;;;;;22.89;57.15;100021.63;5096480;28;20074;-82
2023/06/07 07:08:02;;;;;;;3.45;2.72;;;;;;;22.85;56.28;100024.63;5072820;28;20154;-83
2023/06/07 07:10:28;;;;;;;4.72;3.03;;;;;;;22.66;57.77;100009.59;5099395;28;20111;-83
2023/06/07 07:12:53;;;;;;;2.60;1.73;;;;;;;22.81;56.85;100007.78;5096886;28;20064;-83
2023/06/07 07:15:19;;;;;;;3.22;2.30;;;;;;;22.49;57.12;99985.53;5098656;28;20066;-83
2023/06/07 07:17:47;;;;;;;1.95;1.73;;;;;;;22.94;56.47;100009.72;5092131;28;20024;-83
2023/06/07 07:20:12;;;;;;;1.70;1.42;;;;;;;23.63;54.38;99996.47;5093272;27;20115;-83
2023/06/07 07:22:38;;;;;;;4.32;2.63;;;;;;;24.04;53.00;100006.41;5092284;28;20103;-82
2023/06/07 07:25:05;;;;;;;4.05;2.47;;;;;;;24.44;52.94;99992.94;5097258;28;20027;-84
2023/06/07 07:27:31;;;;;;;2.50;1.75;;;;;;;24.74;51.39;100019.66;5096461;28;20489;-83
2023/06/07 07:29:57;;;;;;;4.53;1.90;;;;;;;24.48;50.61;100000.72;5105209;28;20039;-84
2023/06/07 07:32:22;;;;;;;2.67;1.95;;;;;;;24.34;52.46;99992.69;5100424;28;20028;-86
2023/06/07 07:34:48;;;;;;;3.70;1.85;;;;;;;24.57;50.33;99991.16;5105435;28;20031;-86
2023/06/07 07:37:14;;;;;;;5.50;2.25;;;;;;;24.57;50.30;99988.44;5098217;28;20020;-86
2023/06/07 07:39:39;;;;;;;5.25;2.67;;;;;;;24.26;51.67;99954.63;5093791;28;20078;-86
2023/06/07 07:42:05;;;;;;;5.30;2.47;;;;;;;24.55;51.07;100025.44;5093846;28;20096;-86
2023/06/07 07:44:32;;;;;;;3.85;2.05;;;;;;;24.56;51.45;100008.28;5088975;28;20027;-85
2023/06/07 07:46:58;;;;;;;4.35;2.38;;;;;;;24.37;49.86;99994.31;5099066;28;20438;-86
2023/06/07 07:49:23;;;;;;;4.75;1.77;;;;;;;24.36;50.97;99998.84;5094669;28;20111;-85
2023/06/07 07:51:49;;;;;;;5.07;2.08;;;;;;;24.72;50.84;100023.44;5101208;28;20477;-85
2023/06/07 07:54:14;;;;;;;3.20;2.20;;;;;;;24.16;50.74;99984.03;5092446;28;20028;-86
2023/06/07 07:56:40;;;;;;;10.13;2.22;;;;;;;23.89;51.61;99959.78;5095470;28;20065;-85
2023/06/07 07:59:06;;;;;;;3.28;2.42;;;;;;;23.98;53.91;99994.19;5074118;28;20036;-87
2023/06/07 08:01:32;;;;;;;3.13;2.00;;;;;;;23.98;53.60;100004.97;5096468;28;20032;-87
2023/06/07 08:03:57;;;;;;;10.48;2.58;;;;;;;23.76;52.95;100014.44;5095915;28;20058;-86
2023/06/07 08:06:23;;;;;;;5.00;2.40;;;;;;;23.63;53.41;99983.84;5093430;28;20032;-86
2023/06/07 08:08:48;;;;;;;2.83;1.83;;;;;;;24.23;52.83;100014.13;5096323;28;20092;-85
2023/06/07 08:11:14;;;;;;;4.20;2.00;;;;;;;24.18;53.59;99984.78;5094644;28;20016;-85
2023/06/07 08:13:39;;;;;;;2.83;1.98;;;;;;;24.08;53.29;99989.94;5093283;28;20103;-87
2023/06/07 08:16:05;;;;;;;3.45;1.85;;;;;;;24.21;53.47;100000.75;5096472;28;20028;-86
2023/06/07 08:18:30;;;;;;;3.20;2.35;;;;;;;23.95;53.76;99952.16;5094126;28;20553;-85
2023/06/07 08:20:56;;;;;;;3.38;2.30;;;;;;;23.66;53.29;99970.19;5100833;28;20482;-86
2023/06/07 08:23:21;;;;;;;3.20;1.77;;;;;;;24.03;52.46;99950.78;5091796;28;20390;-86
2023/06/07 08:25:47;;;;;;;8.93;2.10;;;;;;;24.19;51.59;99966.78;5098332;28;20429;-86
2023/06/07 08:28:12;;;;;;;1.90;1.33;;;;;;;24.60;50.06;99958.56;5100872;28;20027;-84
2023/06/07 08:30:40;;;;;;;8.70;2.33;;;;;;;25.03;49.36;99973.59;5076977;28;20044;-85
2023/06/07 08:33:05;;;;;;;3.33;2.47;;;;;;;25.26;49.15;99955.75;5098969;27;20042;-84
2023/06/07 08:35:31;;;;;;;2.45;1.65;;;;;;;25.32;48.44;99957.19;5101790;28;20031;-85
2023/06/07 08:37:56;;;;;;;3.65;2.10;;;;;;;25.43;49.01;99954.56;5100154;28;20031;-84
2023/06/07 08:40:25;;;;;;;6.72;2.47;;;;;;;26.34;46.98;99969.44;5095132;28;20097;-84
2023/06/07 08:42:51;;;;;;;3.42;1.98;;;;;;;26.26;47.88;99967.31;5094272;28;20019;-84
2023/06/07 08:45:17;;;;;;;3.78;1.45;;;;;;;25.90;47.36;99947.50;5093536;28;20032;-84
2023/06/07 08:47:46;;;;;;;3.30;2.15;;;;;;;26.25;47.45;99960.19;5097363;28;20099;-83
2023/06/07 08:50:15;;;;;;;3.20;2.15;;;;;;;26.24;46.56;99979.22;5094375;28;20038;-83
2023/06/07 08:52:41;;;;;;;7.45;2.55;;;;;;;26.07;45.83;99964.28;5099773;28;20031;-82
2023/06/07 08:55:12;;;;;;;4.05;2.10;;;;;;;26.50;44.79;99968.25;5080630;28;20421;-82
2023/06/07 08:57:39;;;;;;;2.25;1.45;;;;;;;25.56;46.13;99970.72;5089222;28;20115;-84
2023/06/07 09:00:08;;;;;;;3.20;1.83;;;;;;;26.24;45.43;99971.13;5090101;28;20394;-83
2023/06/07 09:02:33;;;;;;;3.10;2.17;;;;;;;25.51;44.75;99917.06;5071270;28;20122;-83
2023/06/07 09:05:05;;;;;;;3.05;2.30;;;;;;;26.13;43.89;99950.31;5101370;28;20110;-81
2023/06/07 09:07:35;;;;;;;5.07;1.88;;;;;;;26.57;43.26;99970.38;5130272;28;20031;-83
2023/06/07 09:10:01;;;;;;;2.60;1.98;;;;;;;25.89;45.40;99934.94;5130812;28;20035;-82
2023/06/07 09:12:26;;;;;;;3.00;1.60;;;;;;;25.64;45.87;99892.72;5102114;28;20420;-83
2023/06/07 09:14:52;;;;;;;4.63;1.73;;;;;;;26.17;44.57;99964.47;5096250;28;20465;-84
2023/06/07 09:17:17;;;;;;;3.70;1.83;;;;;;;26.55;44.40;99923.63;5100186;28;20032;-83
2023/06/07 09:19:43;;;;;;;3.35;1.75;;;;;;;26.67;45.11;99900.22;5075260;28;20035;-82
2023/06/07 09:22:13;;;;;;;2.95;1.70;;;;;;;27.07;42.15;99953.88;5095590;28;20122;-87
2023/06/07 09:24:40;;;;;;;4.35;1.88;;;;;;;27.05;42.14;99947.72;5096749;28;20062;-83
2023/06/07 09:27:07;;;;;;;2.30;1.75;;;;;;;26.89;42.21;99936.38;5098199;28;20036;-83
2023/06/07 09:29:41;;;;;;;3.33;2.28;;;;;;;26.01;43.76;99879.16;5078440;28;20058;-83
2023/06/07 09:32:21;;;;;;;3.90;1.73;;;;;;;26.50;44.32;99904.22;5112305;28;20039;-83
2023/06/07 09:34:46;;;;;;;1.45;1.15;;;;;;;26.91;42.51;99931.69;5109495;28;20039;-84
2023/06/07 09:37:13;;;;;;;3.45;2.08;;;;;;;26.94;40.19;99899.84;5102708;28;20485;-85
2023/06/07 09:39:39;;;;;;;1.77;1.20;;;;;;;26.71;42.11;99912.53;5086887;28;20609;-84
2023/06/07 09:42:15;;;;;;;2.67;1.48;;;;;;;26.60;42.75;99926.84;5110088;28;20111;-84
2023/06/07 09:44:41;;;;;;;3.33;2.00;;;;;;;26.45;41.77;99912.69;5109560;28;20028;-88
2023/06/07 09:47:18;;;;;;;4.03;2.13;;;;;;;26.84;41.96;99911.53;5100230;28;20043;-84
2023/06/07 09:49:44;;;;;;;3.60;1.73;;;;;;;26.82;42.13;99899.97;5075379;28;20027;-84
2023/06/07 09:52:14;;;;;;;2.28;1.80;;;;;;;26.73;42.21;99878.06;5089453;28;20032;-83
2023/06/07 09:54:42;;;;;;;1.60;1.25;;;;;;;26.91;40.80;99919.06;5105600;28;20050;-82
2023/06/07 09:57:27;;;;;;;1.13;1.02;;;;;;;27.07;42.57;99907.84;5109986;28;20076;-83
2023/06/07 09:59:58;;;;;;;3.65;1.48;;;;;;;27.00;42.06;99912.00;5088813;28;20032;-84
2023/06/07 10:02:24;;;;;;;3.55;1.63;;;;;;;26.66;41.73;99932.78;5097525;28;20055;-83
2023/06/07 10:04:50;;;;;;;4.15;2.03;;;;;;;27.41;42.88;99925.94;5091541;28;20115;-83
2023/06/07 10:07:19;;;;;;;4.13;1.73;;;;;;;27.20;40.99;99909.56;5092882;28;20135;-84
2023/06/07 10:09:47;;;;;;;2.90;1.90;;;;;;;27.47;41.39;99901.06;5090032;28;20035;-83
2023/06/07 10:12:15;;;;;;;2.67;1.63;;;;;;;27.70;40.92;99888.31;5091997;28;20106;-84
2023/06/07 10:14:44;;;;;;;3.40;2.15;;;;;;;27.93;41.60;99875.53;5087344;28;20024;-83
2023/06/07 10:17:13;;;;;;;4.30;1.75;;;;;;;27.54;39.24;99913.09;5091853;28;20451;-82
2023/06/07 10:19:46;;;;;;;2.05;1.38;;;;;;;27.84;40.07;99906.13;5094735;28;20088;-83
2023/06/07 10:22:19;;;;;;;3.80;2.05;;;;;;;27.50;40.00;99869.16;5098846;28;20028;-82
2023/06/07 10:25:16;;;;;;;4.93;1.88;;;;;;;27.49;40.72;99912.63;5101123;28;20496;-84
2023/06/07 10:28:08;;;;;;;1.58;1.00;;;;;;;27.77;38.74;99869.69;5029035;28;20822;-85
2023/06/07 10:30:36;;;;;;;3.03;1.73;;;;;;;27.59;39.54;99901.88;5028006;28;20037;-83
2023/06/07 10:33:04;;;;;;;2.83;1.30;;;;;;;27.96;38.69;99880.72;5017463;28;20041;-86
2023/06/07 10:35:31;;;;;;;7.18;1.55;;;;;;;28.17;39.76;99915.97;5026772;28;20040;-86
2023/06/07 10:37:57;;;;;;;1.23;1.05;;;;;;;27.89;40.52;99851.53;5026314;28;20033;-86
2023/06/07 10:40:25;;;;;;;3.95;2.03;;;;;;;28.25;37.67;99868.34;5012955;28;20064;-84
2023/06/07 10:42:52;;;;;;;4.13;2.72;;;;;;;28.42;35.65;99880.47;5033492;28;20406;-81
2023/06/07 10:45:19;;;;;;;2.15;1.08;;;;;;;28.34;36.76;99876.56;5048373;28;20037;-82
2023/06/07 10:47:47;;;;;;;3.25;1.60;;;;;;;28.18;37.41;99877.03;5044374;28;20040;-82
2023/06/07 10:50:28;;;;;;;3.95;1.75;;;;;;;28.16;37.72;99895.28;5029674;28;20030;-81
2023/06/07 10:53:00;;;;;;;2.53;1.10;;;;;;;28.32;37.83;99889.41;5029599;28;20087;-80
2023/06/07 10:55:26;;;;;;;2.25;1.35;;;;;;;27.67;39.58;99865.03;5028503;28;20033;-80
2023/06/07 10:57:53;;;;;;;3.53;1.70;;;;;;;28.31;36.50;99870.53;5012406;28;20041;-79
2023/06/07 11:00:31;;;;;;;2.83;1.55;;;;;;;28.30;35.85;99888.69;5028406;28;20064;-80
2023/06/07 11:03:10;;;;;;;1.48;1.00;;;;;;;28.41;36.43;99887.75;5030831;28;20029;-82
2023/06/07 11:05:57;;;;;;;1.85;1.13;;;;;;;28.97;34.48;99875.63;5102260;27;20497;-81
2023/06/07 11:08:26;;;;;;;1.80;1.25;;;;;;;28.02;36.38;99865.75;5093009;28;20023;-81
2023/06/07 11:10:59;;;;;;;2.97;1.92;;;;;;;28.08;37.25;99840.84;5099915;28;20023;-81
2023/06/07 11:13:53;;;;;;;4.93;1.45;;;;;;;28.78;37.47;99865.56;5105734;28;20070;-80
2023/06/07 11:16:25;;;;;;;;;;;;;;;28.44;37.81;99873.03;5031037;28;20047;-81
2023/06/07 11:19:12;;;;;;;2.33;1.38;;;;;;;28.15;36.87;99842.03;5027863;28;19923;-80
2023/06/07 11:22:04;;;;;;;1.20;0.98;;;;;;;28.84;37.03;99864.13;5032074;28;20043;-80
2023/06/07 11:24:31;;;;;;;1.98;1.20;;;;;;;29.25;36.77;99844.16;5028688;28;20060;-80
2023/06/07 11:26:56;;;;;;;1.38;1.20;;;;;;;29.59;34.19;99829.31;5028517;28;20163;-82
2023/06/07 11:29:22;;;;;;;1.70;1.33;;;;;;;29.41;35.04;99840.03;5030019;28;20228;-82
2023/06/07 11:31:55;;;;;;;2.22;1.55;;;;;;;29.42;35.29;99818.16;5043636;28;20041;-81